Time;durP1;ratioP1;P1;durP2;ratioP2;P2;SDS_P1;SDS_P2;PMS_P1;PMS_P2;Temp;Humidity;BMP_temperature;BMP_pressure;BME280_temperature;BME280_humidity;BME280_pressure;Samples;Min_cycle;Max_cycle;Signal;HPM_P1;HPM_P2
2023/06/24 00:02:15;;;;;;;2.95;2.28;;;23.90;58.90;;;;;;4974879;28;20133;-59
2023/06/24 00:04:41;;;;;;;3.65;2.38;;;23.90;58.90;;;;;;4974250;28;20043;-59
2023/06/24 00:07:07;;;;;;;3.03;2.30;;;23.90;58.90;;;;;;4975323;28;20133;-59
2023/06/24 00:09:32;;;;;;;3.70;2.20;;;23.90;59.00;;;;;;4975397;28;20058;-59
2023/06/24 00:12:00;;;;;;;3.25;2.03;;;23.90;59.00;;;;;;4975218;28;20057;-59
2023/06/24 00:14:26;;;;;;;2.90;2.10;;;23.90;59.00;;;;;;4976148;28;20065;-59
2023/06/24 00:16:53;;;;;;;3.40;2.20;;;23.90;59.00;;;;;;4975533;28;20432;-59
2023/06/24 00:19:19;;;;;;;3.13;2.00;;;23.90;59.10;;;;;;4975395;28;20050;-59
2023/06/24 00:21:45;;;;;;;4.22;2.42;;;23.90;59.80;;;;;;4975545;28;20129;-60
2023/06/24 00:24:10;;;;;;;3.50;2.40;;;23.80;59.10;;;;;;4975314;28;20471;-59
2023/06/24 00:26:36;;;;;;;3.22;2.28;;;23.80;59.10;;;;;;4975038;28;20054;-60
2023/06/24 00:29:02;;;;;;;4.40;2.55;;;23.80;59.10;;;;;;4975817;28;20049;-60
2023/06/24 00:31:27;;;;;;;3.28;1.95;;;23.80;59.10;;;;;;4975516;28;20058;-60
2023/06/24 00:33:53;;;;;;;3.42;2.20;;;23.90;59.20;;;;;;4973786;28;20403;-59
2023/06/24 00:36:21;;;;;;;3.10;2.22;;;23.80;59.20;;;;;;4975238;28;20109;-59
2023/06/24 00:38:48;;;;;;;3.08;2.03;;;23.80;59.20;;;;;;4974354;28;20077;-59
2023/06/24 00:41:14;;;;;;;3.58;2.20;;;23.80;59.20;;;;;;4975018;28;20125;-60
2023/06/24 00:43:40;;;;;;;4.20;2.53;;;23.80;59.20;;;;;;4974666;28;20158;-59
2023/06/24 00:46:06;;;;;;;3.33;2.22;;;23.80;59.20;;;;;;4973230;28;20031;-59
2023/06/24 00:48:34;;;;;;;3.28;2.20;;;23.80;59.30;;;;;;4975294;28;20047;-59
2023/06/24 00:51:03;;;;;;;4.95;2.28;;;23.80;59.30;;;;;;4974116;28;20043;-59
2023/06/24 00:53:29;;;;;;;3.25;2.25;;;23.80;59.30;;;;;;4980988;28;20046;-59
2023/06/24 00:55:55;;;;;;;3.78;2.25;;;23.80;60.00;;;;;;4993815;28;20046;-60
2023/06/24 00:58:21;;;;;;;4.50;2.40;;;23.80;59.40;;;;;;4993769;28;20049;-61
2023/06/24 01:00:48;;;;;;;3.45;2.50;;;23.80;59.40;;;;;;4984911;28;20035;-59
2023/06/24 01:03:14;;;;;;;3.00;2.00;;;23.80;59.40;;;;;;4974809;28;20406;-59
2023/06/24 01:05:43;;;;;;;2.72;1.95;;;23.80;59.40;;;;;;4975074;28;20038;-59
2023/06/24 01:08:09;;;;;;;3.55;2.05;;;23.80;59.50;;;;;;4972832;28;20074;-59
2023/06/24 01:10:35;;;;;;;3.20;2.30;;;23.70;59.40;;;;;;4973168;28;20050;-59
2023/06/24 01:13:01;;;;;;;2.75;2.00;;;23.70;59.50;;;;;;4974485;28;20133;-58
2023/06/24 01:15:28;;;;;;;3.05;2.20;;;23.70;59.50;;;;;;4974330;28;20121;-59
2023/06/24 01:18:08;;;;;;;3.53;2.38;;;23.70;59.50;;;;;;4974405;28;20434;-59
2023/06/24 01:20:46;;;;;;;3.33;2.30;;;23.70;59.50;;;;;;4958989;28;20051;-59
2023/06/24 01:23:59;;;;;;;4.10;2.40;;;23.70;59.50;;;;;;4988636;28;20049;-59
2023/06/24 01:26:58;;;;;;;3.88;2.00;;;23.70;59.50;;;;;;4957433;28;20054;-59
2023/06/24 01:29:54;;;;;;;3.30;2.47;;;23.70;59.60;;;;;;4987841;28;20040;-59
2023/06/24 01:32:34;;;;;;;2.97;2.08;;;23.70;59.60;;;;;;4992129;28;20129;-59
2023/06/24 01:35:03;;;;;;;3.03;2.22;;;23.70;59.60;;;;;;4991948;28;20053;-59
2023/06/24 01:37:42;;;;;;;;;;;23.70;59.60;;;;;;4992416;28;20467;-58
2023/06/24 01:40:25;;;;;;;4.72;2.40;;;23.70;59.60;;;;;;4992347;28;19937;-58
2023/06/24 01:42:51;;;;;;;3.50;2.50;;;23.70;59.70;;;;;;4977626;28;20042;-59
2023/06/24 01:45:19;;;;;;;2.92;2.00;;;23.70;59.70;;;;;;4975442;28;20383;-59
2023/06/24 01:47:47;;;;;;;2.67;2.20;;;23.70;59.70;;;;;;4990465;28;20046;-59
2023/06/24 01:50:12;;;;;;;4.28;2.25;;;23.70;59.80;;;;;;4975467;28;20047;-59
2023/06/24 01:52:39;;;;;;;3.33;2.28;;;23.70;59.70;;;;;;4992665;28;20045;-59
2023/06/24 01:55:06;;;;;;;2.38;1.80;;;23.70;59.80;;;;;;4991992;28;20046;-59
2023/06/24 01:57:31;;;;;;;3.78;2.22;;;23.70;59.80;;;;;;4975082;28;20070;-59
2023/06/24 01:59:57;;;;;;;3.75;2.13;;;23.70;59.80;;;;;;4992134;28;20080;-59
2023/06/24 02:02:22;;;;;;;3.25;2.00;;;23.70;59.80;;;;;;4974184;28;20801;-59
2023/06/24 02:04:49;;;;;;;3.78;2.40;;;23.70;59.80;;;;;;4971202;28;20094;-59
2023/06/24 02:07:15;;;;;;;4.03;2.22;;;23.70;59.80;;;;;;4972437;28;20051;-59
2023/06/24 02:09:43;;;;;;;2.88;2.25;;;23.70;59.90;;;;;;4972612;28;20057;-59
2023/06/24 02:12:09;;;;;;;4.10;2.10;;;23.70;59.80;;;;;;4967317;28;20118;-59
2023/06/24 02:14:36;;;;;;;3.83;2.47;;;23.70;59.90;;;;;;4988651;28;20491;-59
2023/06/24 02:17:03;;;;;;;3.13;2.40;;;23.70;59.90;;;;;;4976499;28;20050;-58
2023/06/24 02:19:32;;;;;;;2.88;2.00;;;23.60;59.90;;;;;;4972683;28;20053;-59
2023/06/24 02:21:59;;;;;;;3.20;2.50;;;23.70;60.00;;;;;;4973374;28;20047;-59
2023/06/24 02:24:26;;;;;;;3.03;2.03;;;23.60;59.90;;;;;;4971771;28;20053;-59
2023/06/24 02:26:51;;;;;;;4.18;2.55;;;23.60;59.90;;;;;;4972053;28;20054;-59
2023/06/24 02:29:17;;;;;;;3.50;2.30;;;23.60;60.00;;;;;;4956035;28;20046;-59
2023/06/24 02:31:42;;;;;;;4.10;2.47;;;23.60;60.00;;;;;;4962032;28;20050;-59
2023/06/24 02:34:08;;;;;;;3.65;2.17;;;23.60;60.00;;;;;;4987391;28;20045;-59
2023/06/24 02:36:34;;;;;;;2.85;2.20;;;23.60;60.00;;;;;;4973298;28;20418;-59
2023/06/24 02:38:59;;;;;;;3.13;2.10;;;23.60;60.00;;;;;;4971216;28;20082;-59
2023/06/24 02:41:25;;;;;;;3.40;2.20;;;23.60;60.00;;;;;;4972349;28;20125;-59
2023/06/24 02:43:51;;;;;;;2.80;2.05;;;23.60;60.10;;;;;;4972014;28;20146;-59
2023/06/24 02:46:17;;;;;;;3.35;2.40;;;23.60;60.10;;;;;;4972510;28;20086;-59
2023/06/24 02:48:42;;;;;;;3.75;2.70;;;23.60;60.10;;;;;;4973272;28;20119;-59
2023/06/24 02:51:09;;;;;;;2.85;2.03;;;23.60;60.10;;;;;;4972205;28;20094;-59
2023/06/24 02:53:36;;;;;;;3.65;2.33;;;23.60;60.10;;;;;;4971481;28;20047;-59
2023/06/24 02:56:04;;;;;;;3.53;2.40;;;23.60;60.10;;;;;;4971200;28;20379;-59
2023/06/24 02:58:32;;;;;;;3.38;2.08;;;23.60;60.10;;;;;;4971994;28;20086;-59
2023/06/24 03:01:02;;;;;;;3.63;2.38;;;23.50;60.10;;;;;;4985191;28;20046;-59
2023/06/24 03:03:28;;;;;;;3.95;2.60;;;23.60;60.20;;;;;;4992393;28;20104;-59
2023/06/24 03:05:54;;;;;;;3.35;2.40;;;23.50;60.10;;;;;;4980246;28;20042;-59
2023/06/24 03:08:20;;;;;;;3.40;2.20;;;23.50;60.10;;;;;;4972023;28;20563;-59
2023/06/24 03:10:46;;;;;;;3.30;2.42;;;23.50;60.20;;;;;;4973136;28;20501;-59
2023/06/24 03:13:11;;;;;;;3.05;2.10;;;23.50;60.10;;;;;;4971035;28;20051;-59
2023/06/24 03:15:38;;;;;;;3.25;2.40;;;23.50;60.20;;;;;;4972641;28;20043;-60
2023/06/24 03:18:03;;;;;;;3.08;2.33;;;23.50;60.20;;;;;;4972611;28;20051;-60
2023/06/24 03:20:35;;;;;;;3.30;2.30;;;23.50;60.20;;;;;;4972565;28;20039;-60
2023/06/24 03:23:01;;;;;;;3.08;2.30;;;23.50;60.20;;;;;;4972196;28;20051;-60
2023/06/24 03:25:27;;;;;;;3.08;2.10;;;23.50;60.20;;;;;;4973014;28;20042;-60
2023/06/24 03:27:52;;;;;;;2.92;2.00;;;23.50;60.20;;;;;;4972134;28;20205;-60
2023/06/24 03:30:18;;;;;;;3.47;2.53;;;23.50;60.20;;;;;;4972922;28;20049;-60
2023/06/24 03:32:46;;;;;;;4.18;2.55;;;23.50;60.20;;;;;;4972892;28;20541;-60
2023/06/24 03:35:12;;;;;;;2.80;2.20;;;23.50;60.30;;;;;;4972267;28;20106;-60
2023/06/24 03:37:38;;;;;;;4.10;2.30;;;23.50;60.30;;;;;;4972059;28;20201;-60
2023/06/24 03:40:04;;;;;;;3.28;2.40;;;23.50;60.30;;;;;;4972586;28;20483;-60
2023/06/24 03:42:29;;;;;;;2.90;2.15;;;23.50;60.30;;;;;;4974551;28;20037;-60
2023/06/24 03:44:57;;;;;;;3.40;2.50;;;23.50;60.30;;;;;;4979979;28;20391;-60
2023/06/24 03:47:23;;;;;;;2.85;2.22;;;23.50;60.30;;;;;;4971850;28;20126;-60
2023/06/24 03:49:49;;;;;;;2.80;2.03;;;23.50;60.90;;;;;;4971052;28;20546;-60
2023/06/24 03:52:14;;;;;;;3.75;2.40;;;23.50;60.30;;;;;;4972481;28;20035;-60
2023/06/24 03:54:40;;;;;;;4.40;2.58;;;23.50;60.30;;;;;;4972741;28;20419;-60
2023/06/24 03:57:06;;;;;;;2.90;2.17;;;23.50;60.30;;;;;;4971702;28;20042;-60
2023/06/24 03:59:32;;;;;;;3.28;2.20;;;23.50;60.30;;;;;;4972815;28;20043;-60
2023/06/24 04:01:58;;;;;;;3.75;2.63;;;23.50;60.30;;;;;;4975876;28;20524;-60
2023/06/24 04:04:23;;;;;;;2.55;2.05;;;23.50;60.30;;;;;;4987369;28;20484;-60
2023/06/24 04:06:49;;;;;;;3.63;2.38;;;23.50;60.30;;;;;;4990816;28;20097;-60
2023/06/24 04:09:14;;;;;;;3.45;2.60;;;23.50;60.30;;;;;;4992006;28;20046;-59
2023/06/24 04:11:40;;;;;;;3.30;2.35;;;23.50;60.30;;;;;;4992501;28;20476;-60
2023/06/24 04:14:06;;;;;;;3.35;2.40;;;23.50;60.40;;;;;;4995125;28;20049;-60
2023/06/24 04:16:33;;;;;;;3.53;2.50;;;23.50;60.40;;;;;;4994765;28;20050;-60
2023/06/24 04:18:58;;;;;;;2.83;2.10;;;23.50;60.40;;;;;;4994641;28;20092;-60
2023/06/24 04:21:25;;;;;;;3.20;2.20;;;23.50;60.40;;;;;;4994424;28;20046;-60
2023/06/24 04:23:51;;;;;;;3.10;2.30;;;23.50;60.40;;;;;;4994143;28;20502;-60
2023/06/24 04:26:16;;;;;;;4.00;2.22;;;23.50;60.40;;;;;;4985038;28;20050;-60
2023/06/24 04:28:42;;;;;;;2.58;2.05;;;23.50;60.40;;;;;;4974683;28;20061;-60
2023/06/24 04:31:07;;;;;;;3.00;2.20;;;23.50;60.40;;;;;;4973282;28;20453;-60
2023/06/24 04:33:33;;;;;;;3.28;2.45;;;23.50;60.40;;;;;;4988063;28;20042;-60
2023/06/24 04:36:00;;;;;;;4.22;2.20;;;23.50;60.40;;;;;;4994529;28;20039;-60
2023/06/24 04:38:25;;;;;;;3.10;2.25;;;23.50;60.40;;;;;;4993969;28;20043;-60
2023/06/24 04:40:51;;;;;;;3.17;2.28;;;23.50;60.40;;;;;;4994495;28;20343;-60
2023/06/24 04:43:16;;;;;;;2.92;2.20;;;23.50;60.40;;;;;;4995309;28;20038;-60
2023/06/24 04:45:42;;;;;;;2.92;2.20;;;23.60;60.50;;;;;;4994003;28;20512;-60
2023/06/24 04:48:08;;;;;;;2.50;1.85;;;23.50;60.40;;;;;;4994756;28;20058;-61
2023/06/24 04:50:33;;;;;;;3.33;2.40;;;23.60;60.50;;;;;;4994973;28;20034;-60
2023/06/24 04:53:01;;;;;;;3.20;2.30;;;23.60;60.50;;;;;;4993869;28;20050;-60
2023/06/24 04:55:27;;;;;;;3.17;2.30;;;23.60;60.50;;;;;;4994764;28;20047;-60
2023/06/24 04:57:52;;;;;;;3.13;2.28;;;23.60;60.50;;;;;;4994699;28;20093;-60
2023/06/24 05:00:18;;;;;;;4.38;2.55;;;23.60;60.50;;;;;;4994017;28;20050;-60
2023/06/24 05:02:45;;;;;;;3.35;2.17;;;23.60;60.50;;;;;;4995090;28;20192;-60
2023/06/24 05:05:10;;;;;;;3.45;2.70;;;23.60;60.50;;;;;;4994365;28;20478;-60
2023/06/24 05:07:36;;;;;;;3.10;2.20;;;23.60;60.50;;;;;;4993537;28;20053;-60
2023/06/24 05:10:02;;;;;;;3.17;2.60;;;23.60;60.50;;;;;;4985508;28;20081;-59
2023/06/24 05:12:27;;;;;;;2.95;2.40;;;23.60;60.60;;;;;;4994323;28;20037;-59
2023/06/24 05:14:53;;;;;;;3.40;2.40;;;23.70;60.60;;;;;;4993359;28;20046;-58
2023/06/24 05:17:19;;;;;;;3.40;2.40;;;23.70;60.60;;;;;;4994110;28;20068;-59
2023/06/24 05:19:45;;;;;;;2.80;2.38;;;23.70;60.60;;;;;;4993795;28;20053;-58
2023/06/24 05:22:10;;;;;;;3.30;2.13;;;23.70;60.60;;;;;;4977785;28;20043;-60
2023/06/24 05:24:36;;;;;;;3.60;2.65;;;23.70;60.60;;;;;;4974361;28;20056;-59
2023/06/24 05:27:08;;;;;;;3.38;2.30;;;23.70;60.70;;;;;;4973783;28;20479;-59
2023/06/24 05:29:34;;;;;;;3.53;2.50;;;23.70;60.70;;;;;;4974931;28;20039;-58
2023/06/24 05:32:01;;;;;;;4.60;2.45;;;23.70;60.70;;;;;;4974442;28;20493;-59
2023/06/24 05:34:27;;;;;;;3.07;2.20;;;23.70;60.70;;;;;;4974175;28;20047;-58
2023/06/24 05:36:53;;;;;;;3.13;2.22;;;23.70;60.60;;;;;;4974048;28;20312;-58
2023/06/24 05:39:20;;;;;;;3.97;3.00;;;23.70;60.70;;;;;;4974732;28;20051;-59
2023/06/24 05:41:45;;;;;;;3.58;2.50;;;23.70;60.70;;;;;;4972557;28;20043;-58
2023/06/24 05:44:11;;;;;;;3.17;2.40;;;23.70;60.70;;;;;;4973962;28;20055;-58
2023/06/24 05:46:39;;;;;;;3.63;2.50;;;23.70;60.60;;;;;;4974469;28;20047;-58
2023/06/24 05:49:05;;;;;;;3.72;2.40;;;23.70;60.70;;;;;;4973462;28;20479;-58
2023/06/24 05:51:31;;;;;;;3.00;2.15;;;23.70;60.70;;;;;;4974257;28;20039;-58
2023/06/24 05:53:57;;;;;;;3.53;2.47;;;23.70;60.70;;;;;;4984525;28;20042;-59
2023/06/24 05:56:23;;;;;;;3.00;2.20;;;23.70;60.70;;;;;;4992811;28;20074;-58
2023/06/24 05:58:48;;;;;;;3.10;2.30;;;23.70;60.70;;;;;;4993625;28;20081;-59
2023/06/24 06:01:14;;;;;;;3.38;2.28;;;23.80;60.70;;;;;;4993407;28;20474;-58
2023/06/24 06:03:40;;;;;;;3.53;2.58;;;23.80;60.70;;;;;;4992850;28;20070;-58
2023/06/24 06:06:06;;;;;;;3.90;2.30;;;23.80;60.60;;;;;;4992622;28;21361;-58
2023/06/24 06:08:35;;;;;;;3.55;2.38;;;23.80;60.70;;;;;;4993692;28;20078;-58
2023/06/24 06:11:03;;;;;;;3.80;2.88;;;23.80;60.80;;;;;;4990314;28;20077;-64
2023/06/24 06:13:29;;;;;;;10.48;4.55;;;23.80;60.70;;;;;;4990858;28;20042;-62
2023/06/24 06:15:56;;;;;;;9.48;6.55;;;23.80;60.40;;;;;;4992148;28;20126;-62
2023/06/24 06:18:21;;;;;;;11.82;7.85;;;23.70;60.00;;;;;;4988891;28;20046;-64
2023/06/24 06:20:47;;;;;;;10.05;6.47;;;23.70;59.80;;;;;;4992469;28;20062;-65
2023/06/24 06:23:13;;;;;;;12.70;8.13;;;23.60;59.80;;;;;;4976583;28;20386;-64
2023/06/24 06:25:38;;;;;;;13.80;7.32;;;23.60;59.60;;;;;;4988643;28;20497;-64
2023/06/24 06:28:04;;;;;;;11.02;7.13;;;23.50;59.50;;;;;;4990168;28;20057;-63
2023/06/24 06:30:30;;;;;;;13.02;6.75;;;23.50;59.70;;;;;;4990550;28;20886;-63
2023/06/24 06:32:55;;;;;;;9.57;6.38;;;23.50;59.70;;;;;;4988193;28;20038;-63
2023/06/24 06:35:21;;;;;;;11.70;6.80;;;23.50;59.90;;;;;;4992251;28;20046;-63
2023/06/24 06:37:52;;;;;;;10.55;6.55;;;23.40;59.90;;;;;;4987787;28;20051;-63
2023/06/24 06:40:18;;;;;;;9.80;7.40;;;23.40;59.90;;;;;;4990009;28;20468;-63
2023/06/24 06:42:43;;;;;;;13.02;7.30;;;23.40;59.70;;;;;;4978166;28;20050;-63
2023/06/24 06:45:10;;;;;;;10.75;6.03;;;23.30;59.50;;;;;;4972347;28;20039;-64
2023/06/24 06:47:35;;;;;;;13.23;6.80;;;23.30;59.50;;;;;;4972764;28;20053;-64
2023/06/24 06:50:01;;;;;;;9.32;6.47;;;23.30;59.40;;;;;;4978211;28;20038;-64
2023/06/24 06:52:28;;;;;;;9.38;6.55;;;23.30;59.50;;;;;;4991346;28;20042;-64
2023/06/24 06:54:54;;;;;;;7.15;5.32;;;23.30;59.50;;;;;;4991829;28;20117;-63
2023/06/24 06:57:19;;;;;;;10.10;5.65;;;23.30;59.50;;;;;;4989865;28;20053;-63
2023/06/24 06:59:45;;;;;;;8.85;5.78;;;23.30;59.60;;;;;;4989808;28;20038;-64
2023/06/24 07:02:11;;;;;;;12.10;6.07;;;23.30;59.70;;;;;;4983164;28;20121;-65
2023/06/24 07:04:36;;;;;;;9.48;5.72;;;23.30;59.60;;;;;;4991104;28;20390;-63
2023/06/24 07:07:02;;;;;;;11.27;6.53;;;23.30;59.70;;;;;;4980317;28;20043;-64
2023/06/24 07:09:28;;;;;;;8.98;5.90;;;23.40;59.50;;;;;;4979395;28;20047;-63
2023/06/24 07:11:53;;;;;;;8.27;5.93;;;23.30;59.30;;;;;;4980887;28;20039;-63
2023/06/24 07:14:19;;;;;;;7.40;5.43;;;23.30;59.30;;;;;;4991027;28;20046;-63
2023/06/24 07:16:44;;;;;;;9.25;6.03;;;23.30;59.40;;;;;;4991321;28;20050;-63
2023/06/24 07:19:10;;;;;;;9.65;6.38;;;23.30;59.30;;;;;;4991246;28;20482;-64
2023/06/24 07:21:36;;;;;;;10.95;6.10;;;23.30;59.40;;;;;;4990928;28;20043;-63
2023/06/24 07:24:01;;;;;;;10.90;5.85;;;23.30;59.60;;;;;;4991826;28;20113;-63
2023/06/24 07:26:28;;;;;;;9.02;5.90;;;23.30;59.70;;;;;;4991443;28;20039;-63
2023/06/24 07:28:59;;;;;;;9.05;5.72;;;23.30;60.20;;;;;;4992117;28;20113;-63
2023/06/24 07:31:24;;;;;;;9.05;5.35;;;23.30;59.70;;;;;;4991435;28;20043;-64
2023/06/24 07:33:50;;;;;;;10.25;5.88;;;23.30;59.80;;;;;;4984249;28;20046;-63
2023/06/24 07:36:15;;;;;;;8.45;5.40;;;23.40;59.80;;;;;;4972396;28;20125;-63
2023/06/24 07:38:41;;;;;;;9.35;6.28;;;23.30;59.80;;;;;;4972867;28;20046;-63
2023/06/24 07:41:06;;;;;;;8.27;5.78;;;23.40;60.00;;;;;;4987315;28;20460;-63
2023/06/24 07:43:33;;;;;;;8.40;5.90;;;23.40;60.00;;;;;;4973123;28;20799;-64
2023/06/24 07:45:59;;;;;;;10.70;6.13;;;23.40;60.20;;;;;;4973049;28;20102;-64
2023/06/24 07:48:24;;;;;;;8.60;5.70;;;23.40;60.10;;;;;;4975641;28;20133;-63
2023/06/24 07:50:50;;;;;;;10.10;5.55;;;23.40;60.10;;;;;;4976159;28;20047;-64
2023/06/24 07:53:15;;;;;;;9.38;5.75;;;23.40;60.10;;;;;;4976357;28;20051;-63
2023/06/24 07:55:41;;;;;;;9.82;5.88;;;23.40;60.20;;;;;;4975657;28;20074;-63
2023/06/24 07:58:07;;;;;;;11.07;6.03;;;23.40;60.30;;;;;;4975636;28;20043;-60
2023/06/24 08:00:33;;;;;;;12.27;5.95;;;23.50;60.30;;;;;;4975977;28;20043;-63
2023/06/24 08:02:58;;;;;;;10.40;6.10;;;23.50;60.30;;;;;;4975187;28;20057;-61
2023/06/24 08:05:24;;;;;;;9.40;5.97;;;23.50;60.30;;;;;;4976444;28;20043;-62
2023/06/24 08:07:51;;;;;;;12.05;6.32;;;23.50;60.30;;;;;;4983968;28;20042;-61
2023/06/24 08:10:16;;;;;;;11.50;6.20;;;23.50;60.30;;;;;;4994675;28;20486;-61
2023/06/24 08:12:42;;;;;;;11.95;6.78;;;23.50;60.40;;;;;;4989699;28;20046;-63
2023/06/24 08:15:08;;;;;;;13.40;6.47;;;23.50;60.40;;;;;;4995009;28;20042;-61
2023/06/24 08:17:34;;;;;;;11.23;6.30;;;23.50;60.40;;;;;;4994395;28;20085;-60
2023/06/24 08:20:00;;;;;;;11.90;6.30;;;23.50;60.30;;;;;;4994518;28;20100;-61
2023/06/24 08:22:25;;;;;;;12.63;7.38;;;23.60;60.30;;;;;;4991748;28;20164;-61
2023/06/24 08:24:51;;;;;;;11.20;7.50;;;23.60;60.50;;;;;;4993808;28;20133;-61
2023/06/24 08:27:16;;;;;;;13.05;6.13;;;23.60;60.30;;;;;;4994944;28;20042;-63
2023/06/24 08:29:42;;;;;;;9.05;6.32;;;23.60;60.30;;;;;;4995618;28;20049;-64
2023/06/24 08:32:08;;;;;;;9.48;6.70;;;23.60;60.20;;;;;;4994166;28;20126;-62
2023/06/24 08:34:33;;;;;;;10.80;5.90;;;23.60;60.10;;;;;;4995322;28;20038;-62
2023/06/24 08:36:59;;;;;;;11.23;6.95;;;23.60;60.10;;;;;;4993219;28;20130;-62
2023/06/24 08:39:25;;;;;;;11.27;6.50;;;23.60;60.00;;;;;;4994927;28;20062;-63
2023/06/24 08:41:50;;;;;;;11.00;6.40;;;23.70;60.00;;;;;;4994225;28;20394;-62
2023/06/24 08:44:16;;;;;;;8.95;6.78;;;23.70;59.90;;;;;;4993985;28;20064;-63
2023/06/24 08:46:42;;;;;;;10.43;6.20;;;23.70;59.80;;;;;;4994136;28;20046;-63
2023/06/24 08:49:16;;;;;;;10.70;6.80;;;23.70;59.80;;;;;;4973939;28;20051;-62
2023/06/24 08:51:42;;;;;;;11.50;6.95;;;23.70;59.70;;;;;;4974239;28;20473;-62
2023/06/24 08:54:09;;;;;;;13.10;7.32;;;23.70;59.70;;;;;;4973025;28;20086;-62
2023/06/24 08:56:35;;;;;;;10.05;7.28;;;23.70;59.60;;;;;;4980150;28;20487;-63
2023/06/24 08:59:01;;;;;;;11.95;7.15;;;23.70;59.60;;;;;;4989573;28;20039;-61
2023/06/24 09:01:26;;;;;;;10.93;7.47;;;23.70;59.70;;;;;;4994479;28;20043;-61
2023/06/24 09:03:52;;;;;;;11.57;7.70;;;23.80;59.60;;;;;;4992528;28;20045;-62
2023/06/24 09:06:18;;;;;;;12.80;7.53;;;23.80;59.60;;;;;;4993745;28;20081;-63
2023/06/24 09:08:55;;;;;;;10.80;6.57;;;23.80;59.60;;;;;;4994318;28;20124;-62
2023/06/24 09:11:27;;;;;;;11.33;7.27;;;23.80;59.50;;;;;;4994385;28;20038;-62
2023/06/24 09:13:59;;;;;;;12.73;7.78;;;23.80;59.40;;;;;;4993086;28;20317;-61
2023/06/24 09:16:25;;;;;;;10.38;7.03;;;23.80;59.50;;;;;;4994360;28;20050;-63
2023/06/24 09:18:51;;;;;;;14.30;7.68;;;23.80;59.40;;;;;;4993578;28;20050;-63
2023/06/24 09:21:27;;;;;;;9.85;6.40;;;23.80;59.10;;;;;;4992884;28;20077;-61
2023/06/24 09:23:56;;;;;;;13.68;7.13;;;23.80;59.10;;;;;;4990497;28;20046;-59
2023/06/24 09:26:25;;;;;;;10.75;6.63;;;23.80;59.40;;;;;;4990976;28;20050;-58
2023/06/24 09:28:51;;;;;;;14.48;7.65;;;23.80;59.70;;;;;;4978824;28;20046;-58
2023/06/24 09:31:17;;;;;;;9.45;6.18;;;23.90;59.90;;;;;;4974922;28;20101;-58
2023/06/24 09:33:42;;;;;;;11.48;6.45;;;23.90;60.00;;;;;;4973813;28;20517;-59
2023/06/24 09:36:12;;;;;;;10.68;6.15;;;23.90;60.20;;;;;;4974041;28;20074;-59
2023/06/24 09:38:41;;;;;;;9.10;5.70;;;23.90;60.30;;;;;;4974498;28;20109;-58
2023/06/24 09:41:06;;;;;;;10.50;5.30;;;24.00;60.40;;;;;;4973183;28;20534;-58
2023/06/24 09:43:36;;;;;;;9.20;5.53;;;24.00;60.50;;;;;;4973775;28;20049;-60
2023/06/24 09:46:02;;;;;;;9.43;5.55;;;24.00;60.50;;;;;;4973858;28;20399;-60
2023/06/24 09:48:28;;;;;;;8.20;5.38;;;24.00;60.50;;;;;;4973410;28;20112;-59
2023/06/24 09:51:00;;;;;;;9.43;5.53;;;24.00;60.50;;;;;;4973855;28;20046;-60
2023/06/24 09:53:29;;;;;;;10.25;5.45;;;24.00;60.60;;;;;;4974107;28;20051;-60
2023/06/24 09:55:56;;;;;;;8.18;5.28;;;24.00;60.60;;;;;;4971955;28;20042;-59
2023/06/24 09:58:21;;;;;;;8.98;5.25;;;24.00;60.70;;;;;;4981121;28;20050;-59
2023/06/24 10:00:47;;;;;;;8.75;5.10;;;24.00;60.60;;;;;;4993110;28;20170;-59
2023/06/24 10:03:12;;;;;;;8.45;5.22;;;24.00;60.60;;;;;;4972076;28;20101;-59
2023/06/24 10:05:38;;;;;;;9.45;5.30;;;24.00;60.60;;;;;;4972857;28;20039;-60
2023/06/24 10:08:05;;;;;;;25.50;17.70;;;24.00;60.50;;;;;;4984733;28;20181;-60
2023/06/24 10:10:31;;;;;;;47.72;34.13;;;24.10;60.50;;;;;;4992913;28;20050;-61
2023/06/24 10:12:57;;;;;;;22.65;14.88;;;24.10;60.40;;;;;;4992689;28;20053;-59
2023/06/24 10:15:22;;;;;;;17.40;12.57;;;24.10;60.20;;;;;;4991771;28;20169;-60
2023/06/24 10:17:51;;;;;;;18.42;11.27;;;24.20;60.10;;;;;;4992461;28;20038;-60
2023/06/24 10:20:28;;;;;;;13.68;9.27;;;24.20;59.90;;;;;;4993202;28;20053;-60
2023/06/24 10:22:54;;;;;;;13.80;9.00;;;24.20;59.20;;;;;;4991909;28;20121;-60
2023/06/24 10:25:21;;;;;;;17.17;9.52;;;24.20;59.20;;;;;;4993247;28;20609;-60
2023/06/24 10:27:49;;;;;;;11.48;7.22;;;24.20;60.00;;;;;;4992641;28;20474;-60
2023/06/24 10:30:19;;;;;;;13.32;8.10;;;24.20;59.20;;;;;;4975077;28;20050;-60
2023/06/24 10:32:45;;;;;;;10.80;7.00;;;24.20;59.10;;;;;;4984285;28;20066;-60
2023/06/24 10:35:32;;;;;;;10.38;6.50;;;24.30;59.10;;;;;;4973241;28;20101;-60
2023/06/24 10:37:58;;;;;;;11.70;6.53;;;24.30;59.00;;;;;;4972118;28;20063;-60
2023/06/24 10:40:39;;;;;;;10.20;6.30;;;24.30;58.70;;;;;;4973849;28;20050;-60
2023/06/24 10:43:23;;;;;;;11.60;6.65;;;24.30;58.50;;;;;;4972944;28;20053;-60
2023/06/24 10:45:56;;;;;;;9.95;6.35;;;24.30;58.50;;;;;;4973257;28;20059;-60
2023/06/24 10:48:22;;;;;;;10.52;5.75;;;24.30;58.50;;;;;;4973237;28;20051;-60
2023/06/24 10:50:49;;;;;;;10.38;5.68;;;24.30;58.20;;;;;;4971716;28;20090;-61
2023/06/24 10:53:15;;;;;;;6.97;4.50;;;24.30;58.20;;;;;;4983023;28;20054;-61
2023/06/24 10:55:40;;;;;;;9.68;5.03;;;24.30;58.30;;;;;;4992691;28;20042;-60
2023/06/24 10:58:11;;;;;;;7.93;4.57;;;24.40;58.20;;;;;;4991548;28;20057;-60
2023/06/24 11:00:36;;;;;;;8.38;4.88;;;24.40;58.00;;;;;;4992619;28;20038;-60
2023/06/24 11:03:15;;;;;;;8.27;5.25;;;24.40;57.70;;;;;;4991998;28;20521;-60
2023/06/24 11:05:41;;;;;;;8.20;4.50;;;24.40;57.60;;;;;;4992066;28;20039;-60
2023/06/24 11:08:07;;;;;;;9.35;4.43;;;24.40;57.40;;;;;;4991956;28;20047;-60
2023/06/24 11:10:33;;;;;;;8.50;4.60;;;24.40;57.10;;;;;;4992596;28;20077;-60
2023/06/24 11:13:05;;;;;;;6.93;4.13;;;24.40;56.80;;;;;;4991415;28;20100;-60
2023/06/24 11:15:31;;;;;;;8.45;4.40;;;24.40;56.00;;;;;;4992972;28;20085;-60
2023/06/24 11:17:57;;;;;;;6.30;3.83;;;24.40;55.90;;;;;;4992115;28;20050;-60
2023/06/24 11:20:23;;;;;;;6.13;4.03;;;24.50;55.60;;;;;;4992087;28;20043;-60
2023/06/24 11:22:48;;;;;;;6.00;3.58;;;24.40;56.30;;;;;;4996315;28;20553;-60
2023/06/24 11:25:21;;;;;;;7.50;3.97;;;24.40;55.10;;;;;;4997033;28;20044;-60
2023/06/24 11:27:47;;;;;;;6.65;3.42;;;24.40;54.40;;;;;;4995365;28;20050;-60
2023/06/24 11:30:13;;;;;;;6.75;3.90;;;24.40;54.20;;;;;;4996631;28;20053;-60
2023/06/24 11:32:39;;;;;;;8.52;3.63;;;24.50;54.20;;;;;;4995056;28;20062;-60
2023/06/24 11:35:06;;;;;;;6.22;3.75;;;24.50;54.20;;;;;;4995969;28;20050;-60
2023/06/24 11:37:34;;;;;;;4.47;3.10;;;24.50;54.20;;;;;;4994601;28;20046;-60
2023/06/24 11:40:04;;;;;;;6.68;2.97;;;24.50;54.30;;;;;;4995525;28;20109;-60
2023/06/24 11:42:31;;;;;;;6.03;3.28;;;24.50;54.20;;;;;;4996361;28;20054;-60
2023/06/24 11:45:04;;;;;;;6.07;3.10;;;24.50;53.80;;;;;;4995838;28;20398;-60
2023/06/24 11:47:34;;;;;;;5.00;2.90;;;24.50;52.90;;;;;;4979175;28;20109;-60
2023/06/24 11:50:00;;;;;;;6.13;3.47;;;24.50;52.60;;;;;;4976327;28;20054;-60
2023/06/24 11:52:39;;;;;;;6.40;3.40;;;24.50;52.70;;;;;;4976701;28;20051;-60
2023/06/24 11:55:11;;;;;;;6.43;3.58;;;24.50;52.40;;;;;;4975614;28;20086;-60
2023/06/24 11:57:57;;;;;;;6.13;3.08;;;24.60;52.40;;;;;;4976808;28;20045;-60
2023/06/24 12:00:24;;;;;;;5.25;2.50;;;24.60;52.10;;;;;;4977004;28;20066;-59
2023/06/24 12:02:53;;;;;;;5.32;2.70;;;24.60;52.00;;;;;;4975472;28;20098;-60
2023/06/24 12:05:30;;;;;;;5.63;2.80;;;24.60;51.80;;;;;;4976600;28;20461;-59
2023/06/24 12:08:00;;;;;;;5.38;3.38;;;24.70;51.70;;;;;;4975177;28;20182;-59
2023/06/24 12:10:26;;;;;;;4.85;2.90;;;24.70;51.50;;;;;;4976596;28;20035;-60
2023/06/24 12:12:51;;;;;;;5.15;2.88;;;24.70;51.40;;;;;;4976183;28;20047;-58
2023/06/24 12:15:17;;;;;;;5.53;2.90;;;24.70;51.40;;;;;;4975816;28;20038;-60
2023/06/24 12:17:42;;;;;;;5.07;2.90;;;24.70;51.40;;;;;;4976268;28;20517;-60
2023/06/24 12:20:09;;;;;;;6.25;3.58;;;24.80;51.50;;;;;;4976028;28;20038;-59
2023/06/24 12:22:35;;;;;;;6.82;3.30;;;24.80;51.60;;;;;;4975570;28;20069;-60
2023/06/24 12:25:02;;;;;;;5.85;3.38;;;24.80;51.80;;;;;;4975246;28;20043;-60
2023/06/24 12:27:28;;;;;;;5.97;3.25;;;24.80;51.70;;;;;;4975995;28;20101;-59
2023/06/24 12:29:53;;;;;;;6.40;3.38;;;24.80;51.80;;;;;;4974712;28;20590;-59
2023/06/24 12:32:19;;;;;;;5.57;3.17;;;24.80;51.70;;;;;;4975993;28;20083;-59
2023/06/24 12:34:44;;;;;;;5.65;3.47;;;24.80;51.70;;;;;;4975992;28;20042;-59
2023/06/24 12:37:11;;;;;;;6.85;3.67;;;24.80;51.50;;;;;;4974619;28;20066;-60
2023/06/24 12:39:36;;;;;;;5.38;3.30;;;24.80;51.50;;;;;;4975456;28;20042;-61
2023/06/24 12:42:02;;;;;;;5.93;2.90;;;24.80;51.80;;;;;;4975688;28;20035;-60
2023/06/24 12:44:27;;;;;;;4.75;3.00;;;24.80;51.60;;;;;;4990951;28;20038;-58
2023/06/24 12:46:53;;;;;;;6.18;3.30;;;24.80;51.50;;;;;;4994304;28;20049;-59